Time;durP1;ratioP1;P1;durP2;ratioP2;P2;SDS_P1;SDS_P2;PMS_P1;PMS_P2;Temp;Humidity;BMP_temperature;BMP_pressure;BME280_temperature;BME280_humidity;BME280_pressure;Samples;Min_cycle;Max_cycle;Signal;HPM_P1;HPM_P2
2024/01/10 00:02:26;;;;;;;13.05;6.50;;;;;;;-5.72;67.00;100242.91;4485579;31;20100;-76
2024/01/10 00:04:53;;;;;;;16.62;6.65;;;;;;;-5.76;66.21;100242.03;4485603;31;20108;-76
2024/01/10 00:07:21;;;;;;;18.37;5.32;;;;;;;-5.71;65.50;100245.47;4485129;31;20148;-76
2024/01/10 00:09:48;;;;;;;20.42;6.82;;;;;;;-5.58;63.25;100242.91;4485522;31;20080;-76
2024/01/10 00:12:19;;;;;;;16.42;5.97;;;;;;;-5.61;63.21;100241.22;4485639;31;20412;-76
2024/01/10 00:14:47;;;;;;;16.52;6.03;;;;;;;-5.52;61.64;100243.75;4485392;31;20088;-76
2024/01/10 00:17:15;;;;;;;15.57;5.93;;;;;;;-5.54;62.40;100245.47;4485390;31;20160;-76
2024/01/10 00:19:43;;;;;;;14.77;5.22;;;;;;;-5.49;61.61;100248.03;4500501;31;20092;-76
2024/01/10 00:22:11;;;;;;;21.90;6.70;;;;;;;-5.48;59.83;100248.88;4501267;31;20100;-76
2024/01/10 00:24:38;;;;;;;19.30;6.00;;;;;;;-5.38;59.97;100242.91;4501574;31;20172;-75
2024/01/10 00:27:06;;;;;;;14.50;4.53;;;;;;;-5.45;60.22;100242.06;4501336;31;20110;-75
2024/01/10 00:29:33;;;;;;;11.60;4.95;;;;;;;-5.43;59.83;100252.28;4497572;31;20153;-76
2024/01/10 00:32:01;;;;;;;8.93;4.47;;;;;;;-5.44;59.83;100241.19;4485367;31;20141;-76
2024/01/10 00:34:28;;;;;;;10.70;5.03;;;;;;;-5.46;59.44;100247.19;4485347;31;20096;-75
2024/01/10 00:36:58;;;;;;;11.88;5.78;;;;;;;-5.48;59.68;100249.75;4485273;31;20072;-76
2024/01/10 00:39:25;;;;;;;10.13;5.18;;;;;;;-5.46;59.51;100236.97;4485222;31;20122;-76
2024/01/10 00:41:54;;;;;;;12.60;5.15;;;;;;;-5.40;59.40;100240.34;4485455;31;20158;-75
2024/01/10 00:44:21;;;;;;;14.73;4.82;;;;;;;-5.36;58.98;100238.66;4485367;31;20122;-75
2024/01/10 00:46:48;;;;;;;10.95;4.20;;;;;;;-5.33;57.75;100251.41;4485297;31;20093;-75
2024/01/10 00:49:16;;;;;;;11.98;4.30;;;;;;;-5.39;57.61;100254.84;4485189;31;20115;-76
2024/01/10 00:51:43;;;;;;;12.23;4.37;;;;;;;-5.42;57.05;100249.72;4485132;31;20157;-75
2024/01/10 00:54:10;;;;;;;12.40;4.65;;;;;;;-5.34;57.19;100252.28;4485349;31;20152;-76
2024/01/10 00:56:38;;;;;;;15.20;5.43;;;;;;;-5.37;57.93;100250.56;4485065;32;20088;-75
2024/01/10 00:59:05;;;;;;;14.23;5.40;;;;;;;-5.33;58.13;100246.31;4485336;31;20733;-75
2024/01/10 01:01:32;;;;;;;15.07;5.18;;;;;;;-5.36;57.88;100248.84;4485040;31;20168;-76
2024/01/10 01:04:00;;;;;;;11.85;5.20;;;;;;;-5.39;56.32;100246.31;4485307;31;20095;-76
2024/01/10 01:06:27;;;;;;;17.90;5.37;;;;;;;-5.44;56.20;100250.56;4485073;31;20172;-76
2024/01/10 01:08:54;;;;;;;10.98;4.25;;;;;;;-5.53;55.57;100246.31;4485160;31;20096;-76
2024/01/10 01:11:22;;;;;;;12.77;4.60;;;;;;;-5.61;55.78;100248.03;4484959;31;20153;-76
2024/01/10 01:13:49;;;;;;;11.45;4.57;;;;;;;-5.65;56.12;100256.53;4485171;31;20111;-76
2024/01/10 01:16:16;;;;;;;12.32;5.32;;;;;;;-5.72;56.15;100251.41;4484810;31;20088;-76
2024/01/10 01:18:45;;;;;;;8.45;3.60;;;;;;;-5.68;56.05;100257.37;4493013;31;20092;-76
2024/01/10 01:21:13;;;;;;;14.30;5.32;;;;;;;-5.66;55.69;100254.81;4500604;31;20088;-76
2024/01/10 01:23:40;;;;;;;12.70;4.32;;;;;;;-5.65;56.06;100259.06;4500741;31;20119;-75
2024/01/10 01:26:09;;;;;;;10.18;4.10;;;;;;;-5.66;56.16;100259.91;4499413;31;20095;-76
2024/01/10 01:28:39;;;;;;;7.97;3.40;;;;;;;-5.72;56.03;100255.69;4500572;31;20093;-75
2024/01/10 01:31:06;;;;;;;8.32;3.60;;;;;;;-5.73;56.30;100251.41;4486957;31;20096;-76
2024/01/10 01:33:34;;;;;;;8.30;4.22;;;;;;;-5.75;55.60;100255.69;4484820;31;20148;-75
2024/01/10 01:36:01;;;;;;;12.80;3.28;;;;;;;-5.81;56.28;100248.84;4484776;31;20100;-76
2024/01/10 01:38:30;;;;;;;9.20;4.00;;;;;;;-5.88;56.67;100249.69;4485012;31;20093;-75
2024/01/10 01:40:58;;;;;;;8.73;4.10;;;;;;;-5.89;56.18;100242.88;4484848;31;20093;-76
2024/01/10 01:43:26;;;;;;;10.63;3.95;;;;;;;-5.95;56.70;100248.84;4484918;31;20092;-75
2024/01/10 01:46:07;;;;;;;13.13;4.40;;;;;;;-5.93;57.06;100249.69;4484865;31;20541;-75
2024/01/10 01:48:35;;;;;;;8.23;3.25;;;;;;;-5.90;57.41;100254.78;4484840;31;20144;-75
2024/01/10 01:51:06;;;;;;;9.68;3.35;;;;;;;-5.89;57.15;100253.06;4483495;32;20796;-75
2024/01/10 01:53:35;;;;;;;8.07;3.45;;;;;;;-5.95;56.40;100250.50;4484862;31;20587;-75
2024/01/10 01:56:06;;;;;;;9.50;4.15;;;;;;;-5.95;57.94;100248.84;4484881;31;20105;-75
2024/01/10 01:58:35;;;;;;;10.48;3.55;;;;;;;-6.05;58.45;100239.47;4484991;31;20084;-76
2024/01/10 02:01:04;;;;;;;6.62;3.35;;;;;;;-6.02;59.22;100236.94;4484725;31;20097;-76
2024/01/10 02:03:33;;;;;;;16.52;4.00;;;;;;;-6.07;58.85;100238.59;4484450;32;20179;-76
2024/01/10 02:06:04;;;;;;;10.32;4.00;;;;;;;-6.14;59.60;100226.72;4484588;31;20110;-75
2024/01/10 02:08:35;;;;;;;8.00;3.28;;;;;;;-6.25;61.60;100229.25;4484655;31;20143;-76
2024/01/10 02:11:03;;;;;;;15.05;4.32;;;;;;;-6.26;61.16;100227.53;4484670;31;20145;-76
2024/01/10 02:13:32;;;;;;;7.57;3.85;;;;;;;-6.22;62.11;100233.47;4484750;31;20149;-75
2024/01/10 02:16:00;;;;;;;5.70;2.60;;;;;;;-6.33;61.69;100224.09;4484715;31;20114;-76
2024/01/10 02:18:28;;;;;;;7.05;2.87;;;;;;;-6.53;63.13;100230.84;4491521;31;20118;-75
2024/01/10 02:20:55;;;;;;;7.93;3.12;;;;;;;-6.55;63.19;100224.88;4500206;31;20169;-76
2024/01/10 02:23:22;;;;;;;6.37;3.42;;;;;;;-6.66;64.36;100230.78;4500265;31;20156;-76
2024/01/10 02:25:52;;;;;;;12.90;3.70;;;;;;;-6.76;64.40;100223.94;4500252;31;20104;-76
2024/01/10 02:28:19;;;;;;;6.85;3.00;;;;;;;-6.73;64.07;100231.59;4499980;31;20484;-76
2024/01/10 02:30:47;;;;;;;10.60;3.87;;;;;;;-6.70;64.62;100223.97;4488243;31;20115;-76
2024/01/10 02:33:15;;;;;;;10.90;4.47;;;;;;;-6.74;64.06;100223.94;4484257;31;20213;-75
2024/01/10 02:35:42;;;;;;;10.45;3.60;;;;;;;-6.80;63.35;100225.62;4483975;31;20124;-76
2024/01/10 02:38:10;;;;;;;7.85;3.78;;;;;;;-6.77;62.90;100219.69;4484365;31;20153;-76
2024/01/10 02:40:37;;;;;;;12.00;3.62;;;;;;;-6.78;63.16;100220.53;4484145;31;20173;-75
2024/01/10 02:43:06;;;;;;;8.95;2.97;;;;;;;-6.86;63.39;100219.63;4484334;31;20093;-75
2024/01/10 02:45:35;;;;;;;14.48;4.00;;;;;;;-6.83;62.52;100223.06;4484061;31;20097;-75
2024/01/10 02:48:03;;;;;;;8.73;3.35;;;;;;;-6.86;63.08;100222.19;4484020;31;20084;-75
2024/01/10 02:50:31;;;;;;;8.77;2.92;;;;;;;-6.85;62.07;100223.91;4484477;31;20499;-75
2024/01/10 02:52:58;;;;;;;5.07;2.60;;;;;;;-6.91;61.57;100221.31;4483903;31;20436;-75
2024/01/10 02:55:25;;;;;;;8.40;4.03;;;;;;;-6.89;61.43;100229.81;4484332;31;20179;-75
2024/01/10 02:57:53;;;;;;;8.73;3.72;;;;;;;-6.97;61.92;100227.22;4483905;31;20092;-75
2024/01/10 03:00:20;;;;;;;6.60;3.00;;;;;;;-7.01;62.30;100225.50;4484250;31;20150;-75
2024/01/10 03:02:48;;;;;;;7.22;3.08;;;;;;;-6.97;61.82;100232.31;4483863;31;20513;-75
2024/01/10 03:05:15;;;;;;;11.65;2.90;;;;;;;-6.96;61.73;100229.78;4483868;32;20076;-76
2024/01/10 03:07:42;;;;;;;10.20;3.20;;;;;;;-6.91;61.34;100221.31;4484051;31;20103;-75
2024/01/10 03:10:09;;;;;;;9.55;3.50;;;;;;;-6.93;61.30;100228.09;4484056;31;20438;-75
2024/01/10 03:12:37;;;;;;;4.30;2.33;;;;;;;-6.98;62.19;100231.47;4483644;31;20115;-75
2024/01/10 03:15:06;;;;;;;6.35;3.15;;;;;;;-6.94;61.63;100226.41;4483892;31;20119;-75
2024/01/10 03:17:35;;;;;;;5.85;2.75;;;;;;;-6.90;61.42;100226.44;4484695;31;20093;-75
2024/01/10 03:20:03;;;;;;;5.90;3.15;;;;;;;-6.92;61.64;100229.78;4499850;31;20122;-76
2024/01/10 03:22:45;;;;;;;10.40;4.18;;;;;;;-6.87;60.93;100223.87;4499545;31;20110;-75
2024/01/10 03:25:13;;;;;;;7.75;3.80;;;;;;;-6.84;61.42;100233.25;4499523;31;20161;-76
2024/01/10 03:27:40;;;;;;;10.15;3.53;;;;;;;-6.85;60.84;100227.28;4499378;31;20539;-75
2024/01/10 03:30:08;;;;;;;11.80;3.30;;;;;;;-6.88;61.28;100240.00;4492107;31;20119;-75
2024/01/10 03:32:35;;;;;;;5.78;2.70;;;;;;;-6.84;60.78;100233.25;4483463;31;20110;-76
2024/01/10 03:35:03;;;;;;;8.65;3.20;;;;;;;-6.88;61.46;100232.38;4483483;31;20100;-75
2024/01/10 03:37:32;;;;;;;10.20;3.62;;;;;;;-6.81;60.83;100235.81;4483679;31;20084;-76
2024/01/10 03:40:01;;;;;;;10.30;3.87;;;;;;;-6.78;61.19;100236.69;4483375;31;20725;-75
2024/01/10 03:42:28;;;;;;;6.37;2.87;;;;;;;-6.71;61.24;100235.00;4483960;31;20084;-76
2024/01/10 03:44:55;;;;;;;8.88;3.05;;;;;;;-6.67;59.65;100230.78;4485728;31;20119;-76
2024/01/10 03:47:22;;;;;;;8.30;3.37;;;;;;;-6.58;59.33;100227.44;4485717;31;20093;-75
2024/01/10 03:49:50;;;;;;;6.50;3.65;;;;;;;-6.52;58.26;100215.53;4485879;31;20244;-75
2024/01/10 03:52:19;;;;;;;6.53;3.12;;;;;;;-6.48;57.41;100224.03;4485818;31;20114;-76
2024/01/10 03:54:46;;;;;;;5.97;2.55;;;;;;;-6.42;57.09;100226.63;4485551;31;20450;-76
2024/01/10 03:57:17;;;;;;;6.25;2.90;;;;;;;-6.45;58.03;100221.50;4485823;31;20430;-76
2024/01/10 03:59:45;;;;;;;7.55;3.60;;;;;;;-6.40;56.46;100226.63;4485708;31;20153;-76
2024/01/10 04:02:12;;;;;;;6.43;2.75;;;;;;;-6.39;55.78;100229.16;4485697;31;20083;-76
2024/01/10 04:04:40;;;;;;;7.20;2.97;;;;;;;-6.44;58.51;100230.87;4485775;31;20454;-76
2024/01/10 04:07:08;;;;;;;9.30;3.30;;;;;;;-6.55;59.86;100230.00;4485491;31;20111;-76
2024/01/10 04:09:35;;;;;;;5.85;2.65;;;;;;;-6.63;58.31;100228.25;4485697;31;20531;-76
2024/01/10 04:12:03;;;;;;;9.15;3.67;;;;;;;-6.57;59.51;100234.22;4485395;31;20099;-76
2024/01/10 04:14:30;;;;;;;11.75;4.12;;;;;;;-6.66;62.24;100227.37;4485564;31;20159;-76
2024/01/10 04:16:57;;;;;;;9.02;3.05;;;;;;;-6.87;65.18;100228.13;4485567;31;20126;-76
2024/01/10 04:19:24;;;;;;;7.93;2.80;;;;;;;-7.02;66.28;100232.28;4498393;31;20100;-76
2024/01/10 04:21:51;;;;;;;8.65;3.72;;;;;;;-6.99;67.15;100231.47;4501307;31;20166;-76
2024/01/10 04:24:19;;;;;;;7.18;3.25;;;;;;;-7.05;67.76;100231.44;4501204;31;20092;-76
2024/01/10 04:26:46;;;;;;;11.05;4.12;;;;;;;-7.07;68.54;100231.44;4501074;31;20110;-76
2024/01/10 04:29:13;;;;;;;10.27;3.22;;;;;;;-7.11;69.22;100234.78;4499570;31;20104;-76
2024/01/10 04:31:41;;;;;;;4.40;2.30;;;;;;;-7.15;69.42;100240.69;4485382;31;20096;-76
2024/01/10 04:34:08;;;;;;;8.68;3.37;;;;;;;-7.23;70.12;100235.56;4485082;32;20088;-76
2024/01/10 04:36:36;;;;;;;8.30;3.42;;;;;;;-7.22;69.93;100228.75;4485240;32;20085;-76
2024/01/10 04:39:04;;;;;;;6.97;3.83;;;;;;;-7.21;69.46;100233.87;4485098;32;20162;-76
2024/01/10 04:41:31;;;;;;;8.77;3.35;;;;;;;-7.23;69.95;100234.72;4485315;31;20122;-76
2024/01/10 04:43:58;;;;;;;9.70;2.83;;;;;;;-7.23;70.35;100229.63;4485264;31;20119;-76
2024/01/10 04:46:25;;;;;;;9.30;3.30;;;;;;;-7.27;70.60;100232.97;4485168;31;20113;-76
2024/01/10 04:48:54;;;;;;;7.43;3.67;;;;;;;-7.29;70.91;100237.22;4485115;31;20157;-76
2024/01/10 04:51:22;;;;;;;10.10;3.03;;;;;;;-7.33;71.85;100234.66;4485131;31;20131;-76
2024/01/10 04:53:50;;;;;;;9.88;2.85;;;;;;;-7.37;71.81;100240.56;4485048;31;20175;-76
2024/01/10 04:56:17;;;;;;;12.80;3.35;;;;;;;-7.44;72.83;100243.87;4485169;31;20245;-76
2024/01/10 04:58:46;;;;;;;13.43;3.25;;;;;;;-7.54;74.29;100239.56;4484975;31;20132;-76
2024/01/10 05:01:13;;;;;;;7.87;3.80;;;;;;;-7.72;74.79;100230.06;4485356;31;20118;-76
2024/01/10 05:03:41;;;;;;;8.88;3.40;;;;;;;-7.81;74.83;100241.03;4485025;32;20088;-76
2024/01/10 05:06:08;;;;;;;6.55;3.20;;;;;;;-7.75;74.16;100236.00;4485034;31;20434;-76
2024/01/10 05:08:36;;;;;;;7.80;3.58;;;;;;;-7.71;73.56;100237.72;4485359;31;20117;-76
2024/01/10 05:11:03;;;;;;;12.55;4.00;;;;;;;-7.70;72.97;100239.44;4485320;31;20087;-76
2024/01/10 05:13:31;;;;;;;9.73;3.28;;;;;;;-7.64;73.04;100240.31;4485134;31;20596;-76
2024/01/10 05:15:58;;;;;;;9.10;4.57;;;;;;;-7.64;73.30;100242.84;4484933;31;20088;-75
2024/01/10 05:18:26;;;;;;;9.88;4.15;;;;;;;-7.61;72.83;100241.22;4491750;31;20181;-75
2024/01/10 05:20:53;;;;;;;6.53;3.17;;;;;;;-7.64;73.10;100255.59;4500634;31;20634;-75
2024/01/10 05:23:21;;;;;;;12.85;3.85;;;;;;;-7.70;72.49;100252.16;4500601;31;20122;-75
2024/01/10 05:25:49;;;;;;;13.57;5.85;;;;;;;-7.79;72.97;100247.00;4500788;31;20100;-75
2024/01/10 05:28:17;;;;;;;8.93;3.90;;;;;;;-7.85;70.89;100244.37;4500358;31;20100;-76
2024/01/10 05:30:44;;;;;;;9.35;3.35;;;;;;;-7.85;67.79;100245.22;4489305;31;20156;-75
2024/01/10 05:33:12;;;;;;;8.15;3.30;;;;;;;-7.81;67.83;100245.25;4484875;31;20080;-76
2024/01/10 05:35:42;;;;;;;7.82;3.83;;;;;;;-7.76;68.53;100248.72;4484580;32;20544;-76
2024/01/10 05:38:09;;;;;;;12.93;4.07;;;;;;;-7.77;68.55;100247.00;4490825;31;20164;-76
2024/01/10 05:40:36;;;;;;;10.57;3.35;;;;;;;-7.81;66.41;100245.25;4497069;31;20445;-75
2024/01/10 05:43:04;;;;;;;9.02;2.87;;;;;;;-7.71;66.25;100241.97;4500569;31;20976;-75
2024/01/10 05:45:31;;;;;;;7.72;2.97;;;;;;;-7.64;66.04;100248.81;4491963;31;20204;-75
2024/01/10 05:47:59;;;;;;;10.07;3.80;;;;;;;-7.59;63.12;100248.84;4490414;31;20120;-75
2024/01/10 05:50:26;;;;;;;6.50;2.85;;;;;;;-7.60;63.19;100245.47;4495402;31;20156;-75
2024/01/10 05:52:57;;;;;;;5.62;2.97;;;;;;;-7.63;65.06;100249.66;4500769;31;20110;-76
2024/01/10 05:55:25;;;;;;;6.85;3.53;;;;;;;-7.62;63.03;100241.19;4496069;31;20126;-76
2024/01/10 05:57:52;;;;;;;5.25;3.00;;;;;;;-7.68;64.37;100237.75;4484676;31;20153;-76
2024/01/10 06:00:20;;;;;;;7.62;2.75;;;;;;;-7.65;65.52;100241.19;4484600;32;20084;-76
2024/01/10 06:02:48;;;;;;;6.20;3.22;;;;;;;-7.69;67.15;100245.38;4484498;31;20458;-76
2024/01/10 06:05:17;;;;;;;8.43;3.00;;;;;;;-7.76;70.67;100246.19;4483921;31;20088;-76
2024/01/10 06:07:44;;;;;;;15.05;3.55;;;;;;;-7.81;70.92;100256.31;4484608;31;20142;-76
2024/01/10 06:10:12;;;;;;;9.30;4.43;;;;;;;-7.81;71.50;100255.44;4490258;31;20104;-76
2024/01/10 06:12:40;;;;;;;12.82;3.47;;;;;;;-7.81;71.91;100256.31;4499285;31;20084;-76
2024/01/10 06:15:08;;;;;;;9.18;3.42;;;;;;;-7.87;73.57;100264.72;4499964;31;20117;-76
2024/01/10 06:17:36;;;;;;;11.52;3.97;;;;;;;-7.88;74.73;100257.09;4499927;31;20115;-76
2024/01/10 06:20:06;;;;;;;11.38;3.80;;;;;;;-7.88;74.67;100262.16;4499131;31;20167;-76
2024/01/10 06:22:34;;;;;;;11.30;3.90;;;;;;;-7.82;74.91;100267.31;4485513;31;20114;-75
2024/01/10 06:25:04;;;;;;;10.98;3.40;;;;;;;-7.79;75.29;100271.59;4496722;31;20123;-76
2024/01/10 06:27:32;;;;;;;12.00;3.12;;;;;;;-7.83;76.72;100263.06;4500291;31;20153;-77
2024/01/10 06:29:59;;;;;;;8.32;3.60;;;;;;;-7.93;77.92;100271.41;4492776;31;20160;-77
2024/01/10 06:32:26;;;;;;;11.88;3.30;;;;;;;-7.96;78.06;100271.41;4486122;31;20096;-76
2024/01/10 06:34:54;;;;;;;14.87;3.70;;;;;;;-8.00;79.55;100273.06;4483972;31;20089;-77
2024/01/10 06:37:21;;;;;;;36.15;3.58;;;;;;;-8.03;80.75;100265.41;4491682;31;20119;-76
2024/01/10 06:39:49;;;;;;;15.02;5.32;;;;;;;-8.00;81.46;100269.69;4499930;31;20122;-78
2024/01/10 06:42:16;;;;;;;49.25;5.85;;;;;;;-8.01;82.35;100281.53;4476925;31;20167;-77
2024/01/10 06:44:43;;;;;;;44.90;5.65;;;;;;;-8.03;83.21;100281.50;4481388;31;20873;-77
2024/01/10 06:47:10;;;;;;;55.75;5.00;;;;;;;-8.00;83.21;100285.78;4491749;31;20359;-76
2024/01/10 06:49:38;;;;;;;34.47;5.45;;;;;;;-7.96;81.75;100290.06;4490653;31;20096;-74
2024/01/10 06:52:07;;;;;;;44.42;5.93;;;;;;;-7.88;80.70;100283.34;4487658;31;20100;-76
2024/01/10 06:54:38;;;;;;;54.88;6.85;;;;;;;-7.79;79.93;100282.59;4499308;31;20119;-77
2024/01/10 06:57:05;;;;;;;73.80;9.10;;;;;;;-7.71;79.50;100283.53;4497870;31;20450;-76
2024/01/10 06:59:32;;;;;;;87.78;8.52;;;;;;;-7.58;79.59;100278.56;4495793;31;20138;-76
2024/01/10 07:02:01;;;;;;;72.68;6.90;;;;;;;-7.52;80.27;100288.81;4490773;31;20160;-76
2024/01/10 07:04:29;;;;;;;110.55;9.32;;;;;;;-7.37;79.73;100291.47;4488433;31;20156;-75
2024/01/10 07:06:56;;;;;;;58.67;6.37;;;;;;;-7.37;82.06;100293.16;4483317;31;20133;-76
2024/01/10 07:09:24;;;;;;;35.05;5.28;;;;;;;-7.41;85.21;100293.97;4491216;31;20554;-75
2024/01/10 07:11:52;;;;;;;17.67;4.25;;;;;;;-7.45;84.55;100295.63;4485240;31;20092;-76
2024/01/10 07:14:20;;;;;;;27.40;4.82;;;;;;;-7.38;83.81;100299.94;4488532;31;20117;-75
2024/01/10 07:16:48;;;;;;;19.70;4.40;;;;;;;-7.21;84.16;100301.78;4488262;31;20460;-75
2024/01/10 07:19:15;;;;;;;6.70;3.75;;;;;;;-6.99;81.87;100305.34;4491492;31;20096;-75
2024/01/10 07:21:43;;;;;;;31.52;4.82;;;;;;;-6.77;78.85;100311.41;4498807;31;20091;-76
2024/01/10 07:24:11;;;;;;;58.72;7.70;;;;;;;-6.63;78.48;100309.81;4498821;31;20096;-74
2024/01/10 07:26:39;;;;;;;42.25;7.60;;;;;;;-6.46;79.25;100311.59;4495979;31;20468;-74
2024/01/10 07:29:13;;;;;;;29.58;4.85;;;;;;;-6.29;79.53;100301.47;4496236;31;20156;-74
2024/01/10 07:31:41;;;;;;;10.02;4.30;;;;;;;-6.10;78.93;100299.81;4500751;31;20088;-75
2024/01/10 07:34:08;;;;;;;13.20;3.80;;;;;;;-5.89;78.24;100302.44;4492118;31;20093;-75
2024/01/10 07:36:42;;;;;;;9.45;4.03;;;;;;;-5.67;76.78;100291.41;4485312;31;20097;-75
2024/01/10 07:39:10;;;;;;;7.72;4.30;;;;;;;-5.35;70.80;100294.84;4491165;31;20137;-79
2024/01/10 07:41:37;;;;;;;13.85;4.40;;;;;;;-5.14;67.17;100293.12;4484796;31;20104;-77
2024/01/10 07:44:06;;;;;;;18.55;4.90;;;;;;;-4.97;65.38;100294.84;4491079;31;20134;-80
2024/01/10 07:46:37;;;;;;;12.45;4.93;;;;;;;-4.78;64.12;100293.06;4495866;31;20449;-78
2024/01/10 07:49:05;;;;;;;10.77;5.07;;;;;;;-4.62;60.93;100289.62;4498182;31;20742;-78
2024/01/10 07:51:32;;;;;;;18.62;6.07;;;;;;;-4.60;60.55;100290.50;4496617;31;20184;-80
2024/01/10 07:54:00;;;;;;;17.98;4.97;;;;;;;-4.46;60.37;100286.19;4494359;31;20453;-76
2024/01/10 07:56:28;;;;;;;13.32;4.18;;;;;;;-4.29;61.58;100291.22;4501193;31;20497;-76
2024/01/10 07:58:55;;;;;;;9.50;4.50;;;;;;;-4.21;57.16;100295.47;4496537;31;20112;-75
2024/01/10 08:01:26;;;;;;;9.68;4.30;;;;;;;-3.99;56.47;100296.22;4499814;31;20092;-76
2024/01/10 08:03:56;;;;;;;14.80;5.35;;;;;;;-3.82;55.95;100296.12;4496716;31;20157;-76
2024/01/10 08:06:23;;;;;;;30.73;7.00;;;;;;;-3.65;55.89;100298.59;4500845;31;20113;-75
2024/01/10 08:08:59;;;;;;;23.02;5.45;;;;;;;-3.54;55.86;100291.69;4497344;31;20851;-75
2024/01/10 08:11:26;;;;;;;22.00;4.72;;;;;;;-3.36;57.20;100292.41;4481947;31;20114;-74
2024/01/10 08:13:53;;;;;;;12.37;4.50;;;;;;;-3.22;56.36;100299.13;4491016;31;20119;-76
2024/01/10 08:16:21;;;;;;;11.73;4.55;;;;;;;-3.09;55.27;100306.72;4499415;31;20112;-76
2024/01/10 08:18:49;;;;;;;17.73;5.62;;;;;;;-3.00;53.86;100310.91;4493197;31;20837;-74
2024/01/10 08:21:17;;;;;;;20.58;4.90;;;;;;;-2.88;53.91;100311.66;4499557;31;20138;-76
2024/01/10 08:23:45;;;;;;;15.15;5.18;;;;;;;-2.65;52.04;100317.41;4500514;31;20501;-77
2024/01/10 08:26:14;;;;;;;27.52;4.80;;;;;;;-2.55;51.36;100317.31;4493394;31;20172;-75
2024/01/10 08:28:42;;;;;;;13.70;4.75;;;;;;;-2.45;51.00;100314.63;4491073;31;20092;-78
2024/01/10 08:31:09;;;;;;;18.80;4.93;;;;;;;-2.34;50.64;100315.37;4498669;31;20476;-80
2024/01/10 08:33:37;;;;;;;10.52;4.85;;;;;;;-2.26;49.94;100320.41;4491758;31;20151;-79
2024/01/10 08:36:05;;;;;;;16.98;6.00;;;;;;;-2.18;49.74;100321.16;4493032;31;20089;-83
2024/01/10 08:38:32;;;;;;;13.62;5.87;;;;;;;-2.10;48.69;100316.81;4496989;31;20104;-81
2024/01/10 08:40:59;;;;;;;11.38;5.78;;;;;;;-1.99;49.35;100314.09;4491864;31;20144;-81
2024/01/10 08:43:26;;;;;;;11.88;5.93;;;;;;;-1.86;50.36;100314.78;4488898;31;20108;-80
2024/01/10 08:45:53;;;;;;;22.33;6.80;;;;;;;-1.77;50.45;100314.69;4492975;31;20127;-79
2024/01/10 08:48:20;;;;;;;15.27;6.57;;;;;;;-1.74;49.65;100319.78;4496881;31;20122;-78
2024/01/10 08:50:48;;;;;;;34.35;6.93;;;;;;;-1.69;50.72;100323.12;4498820;31;20160;-83
2024/01/10 08:53:16;;;;;;;26.42;7.07;;;;;;;-1.59;50.72;100318.69;4500115;31;20106;-78
2024/01/10 08:55:43;;;;;;;22.65;8.05;;;;;;;-1.62;48.82;100319.59;4495373;31;20100;-79
2024/01/10 08:58:10;;;;;;;20.83;7.55;;;;;;;-1.46;49.14;100325.34;4498341;31;20522;-78
2024/01/10 09:00:38;;;;;;;19.30;7.82;;;;;;;-1.31;50.22;100319.13;4494438;31;20587;-78
2024/01/10 09:03:07;;;;;;;22.13;8.45;;;;;;;-1.22;50.41;100322.44;4491838;31;20084;-77
2024/01/10 09:05:36;;;;;;;21.50;8.35;;;;;;;-1.14;50.36;100320.59;4493735;31;20122;-78
2024/01/10 09:08:04;;;;;;;16.10;6.85;;;;;;;-1.13;48.91;100322.28;4497545;31;20163;-77
2024/01/10 09:10:32;;;;;;;19.92;7.68;;;;;;;-1.07;49.50;100327.34;4494707;31;20131;-78
2024/01/10 09:12:59;;;;;;;20.83;6.95;;;;;;;-0.99;50.24;100328.03;4493491;31;20100;-77
2024/01/10 09:15:26;;;;;;;16.87;7.55;;;;;;;-0.94;50.81;100323.69;4491510;31;20135;-77
2024/01/10 09:17:53;;;;;;;16.23;6.90;;;;;;;-0.78;48.28;100313.12;4488935;31;20152;-77
2024/01/10 09:20:21;;;;;;;14.85;6.57;;;;;;;-0.72;46.55;100313.00;4487422;31;20517;-75
2024/01/10 09:22:49;;;;;;;14.57;7.30;;;;;;;-0.72;43.63;100320.75;4495446;31;20259;-76
2024/01/10 09:25:18;;;;;;;22.70;7.18;;;;;;;-0.61;44.48;100317.97;4499956;31;20121;-77
2024/01/10 09:27:45;;;;;;;15.80;6.65;;;;;;;-0.52;45.07;100315.22;4487505;31;20117;-76
2024/01/10 09:30:18;;;;;;;16.60;6.35;;;;;;;-0.42;44.94;100313.34;4491309;31;20182;-77
2024/01/10 09:32:46;;;;;;;15.50;7.53;;;;;;;-0.55;43.81;100304.97;4493997;31;20130;-77
2024/01/10 09:35:14;;;;;;;18.65;7.62;;;;;;;-0.57;43.51;100306.75;4495505;31;20100;-78
2024/01/10 09:37:41;;;;;;;15.68;7.65;;;;;;;-0.66;43.79;100305.19;4495192;31;20117;-77
2024/01/10 09:40:10;;;;;;;22.65;7.50;;;;;;;-0.59;44.99;100304.19;4495948;31;20127;-78
2024/01/10 09:42:39;;;;;;;15.02;7.05;;;;;;;-0.39;45.12;100302.97;4489896;31;20222;-77
2024/01/10 09:45:08;;;;;;;16.45;7.15;;;;;;;-0.21;44.95;100305.19;4492864;31;20100;-76
2024/01/10 09:47:36;;;;;;;17.40;8.02;;;;;;;-0.17;46.40;100299.97;4480099;32;20191;-77
2024/01/10 09:50:04;;;;;;;16.00;6.85;;;;;;;-0.02;44.56;100292.75;4483507;31;20107;-78
2024/01/10 09:52:37;;;;;;;17.10;6.25;;;;;;;-0.06;43.81;100292.84;4491837;31;20381;-77
2024/01/10 09:55:09;;;;;;;17.15;7.30;;;;;;;0.03;44.07;100291.81;4482410;31;20225;-77
2024/01/10 09:57:41;;;;;;;22.17;7.25;;;;;;;0.11;44.89;100285.63;4488500;31;20103;-78
2024/01/10 10:00:10;;;;;;;15.35;6.78;;;;;;;0.16;44.92;100286.34;4487541;31;20139;-75
2024/01/10 10:02:40;;;;;;;19.45;7.03;;;;;;;0.16;46.55;100286.34;4489374;31;20161;-77
2024/01/10 10:05:15;;;;;;;17.65;6.75;;;;;;;0.32;45.24;100279.12;4493512;31;20130;-79
2024/01/10 10:07:45;;;;;;;19.10;7.28;;;;;;;0.30;46.47;100285.19;4491705;31;20099;-78
2024/01/10 10:10:14;;;;;;;17.87;6.97;;;;;;;0.31;47.28;100281.75;4488821;31;20076;-78
2024/01/10 10:12:52;;;;;;;21.77;8.02;;;;;;;0.39;48.55;100274.69;4498746;31;20088;-75
2024/01/10 10:15:23;;;;;;;24.55;8.98;;;;;;;0.48;49.12;100274.47;4496454;31;20122;-74
2024/01/10 10:18:05;;;;;;;17.83;7.55;;;;;;;0.48;49.72;100278.78;4493080;31;20096;-73
2024/01/10 10:20:33;;;;;;;20.60;7.60;;;;;;;0.50;49.34;100271.84;4491813;31;20148;-73
2024/01/10 10:23:01;;;;;;;20.90;9.50;;;;;;;0.54;50.01;100281.22;4495476;31;20191;-72
2024/01/10 10:25:31;;;;;;;25.30;10.85;;;;;;;0.63;49.46;100272.41;4490312;31;20096;-73
2024/01/10 10:27:59;;;;;;;19.48;10.10;;;;;;;0.53;49.83;100270.06;4490627;31;20107;-72
2024/01/10 10:30:28;;;;;;;19.25;9.88;;;;;;;0.55;50.60;100269.19;4489650;31;20167;-72
2024/01/10 10:32:55;;;;;;;23.77;9.30;;;;;;;0.69;51.08;100261.94;4488028;31;20167;-72
2024/01/10 10:35:23;;;;;;;21.92;10.23;;;;;;;0.65;51.40;100266.34;4487892;31;20712;-72
2024/01/10 10:38:04;;;;;;;31.10;9.20;;;;;;;0.70;49.96;100259.31;4495842;31;20112;-72
2024/01/10 10:40:33;;;;;;;26.37;9.32;;;;;;;0.67;49.94;100258.56;4494055;31;20767;-72
2024/01/10 10:43:03;;;;;;;21.17;8.93;;;;;;;0.73;51.76;100250.69;4498736;31;20080;-72
2024/01/10 10:45:31;;;;;;;19.87;9.25;;;;;;;0.67;52.65;100245.69;4495288;31;20096;-72
2024/01/10 10:48:01;;;;;;;20.67;9.85;;;;;;;0.58;53.21;100246.75;4488789;31;20204;-71
2024/01/10 10:50:33;;;;;;;22.87;9.13;;;;;;;0.74;53.71;100246.34;4491845;31;20092;-73
2024/01/10 10:53:03;;;;;;;22.90;10.32;;;;;;;0.66;54.89;100239.66;4490337;31;20153;-74
2024/01/10 10:55:31;;;;;;;24.40;10.45;;;;;;;0.74;55.19;100243.78;4492532;31;20935;-73
2024/01/10 10:57:58;;;;;;;21.15;9.82;;;;;;;0.88;55.18;100247.72;4501521;31;20096;-73
2024/01/10 11:00:37;;;;;;;43.40;9.93;;;;;;;0.92;54.61;100242.47;4485941;31;20155;-73
2024/01/10 11:03:04;;;;;;;18.95;9.38;;;;;;;0.81;54.92;100246.16;4492673;31;20122;-73
2024/01/10 11:05:35;;;;;;;24.02;10.35;;;;;;;0.74;55.70;100238.62;4482499;31;20158;-73
2024/01/10 11:08:04;;;;;;;19.77;9.60;;;;;;;0.87;56.17;100238.25;4489350;31;20112;-74
2024/01/10 11:10:35;;;;;;;29.00;10.32;;;;;;;1.01;55.67;100232.75;4493850;31;20167;-72
2024/01/10 11:13:30;;;;;;;27.05;10.52;;;;;;;0.95;56.89;100227.75;4484947;31;20118;-72
2024/01/10 11:15:57;;;;;;;;;;;;;;;0.76;56.52;100227.37;4495124;31;20092;-72
2024/01/10 11:18:36;;;;;;;20.40;9.23;;;;;;;0.75;56.86;100220.53;4491197;31;19994;-74
2024/01/10 11:21:05;;;;;;;20.48;9.60;;;;;;;0.78;57.20;100215.28;4491918;31;20144;-72
2024/01/10 11:23:54;;;;;;;25.88;8.82;;;;;;;0.81;57.56;100217.78;4497568;31;20122;-74
2024/01/10 11:26:22;;;;;;;17.08;8.02;;;;;;;0.87;57.04;100217.63;4492086;31;21185;-73
2024/01/10 11:28:50;;;;;;;17.40;8.18;;;;;;;0.86;57.06;100207.34;4496681;31;20126;-72